Terminal Aerodrome Forecast
Issued by NWS Duluth, MN

Home | Current Version | Previous Version | Graphics & Text | Print | Product List | Glossary On
Versions: 1 2 3 4 5 6 7 8 9 10 11 12 13 14 15 16 17 18 19 20 21 22
000
FTUS43 KDLH 290046 AAB
TAFDLH
TAF AMD
KDLH 290046Z 2901/2924 32011KT P6SM VCSH SCT035 BKN080
     FM290400 29008KT P6SM BKN070
     FM291000 29008KT P6SM VCSH BKN015
     FM291300 29011KT 5SM -SHRA BR OVC008
     FM291900 30012KT P6SM VCSH OVC008
     FM292200 30015G22KT P6SM BKN015=

USA.gov is the U.S. government's official web portal to all federal, state and local government web resources and services.